sensor_id;sensor_type;location;lat;lon;timestamp;temperature;humidity
4376;DHT22;2202;50.866;12.750;2024-01-27T00:00:21;2.80;93.90
4376;DHT22;2202;50.866;12.750;2024-01-27T00:02:47;2.80;94.10
4376;DHT22;2202;50.866;12.750;2024-01-27T00:05:15;2.80;94.10
4376;DHT22;2202;50.866;12.750;2024-01-27T00:07:42;2.80;94.20
4376;DHT22;2202;50.866;12.750;2024-01-27T00:10:09;2.90;94.20
4376;DHT22;2202;50.866;12.750;2024-01-27T00:12:38;2.90;94.10
4376;DHT22;2202;50.866;12.750;2024-01-27T00:15:06;2.90;93.60
4376;DHT22;2202;50.866;12.750;2024-01-27T00:17:33;2.90;93.70
4376;DHT22;2202;50.866;12.750;2024-01-27T00:20:01;2.90;93.60
4376;DHT22;2202;50.866;12.750;2024-01-27T00:22:28;2.90;93.50
4376;DHT22;2202;50.866;12.750;2024-01-27T00:24:55;2.90;93.30
4376;DHT22;2202;50.866;12.750;2024-01-27T00:27:22;2.90;92.40
4376;DHT22;2202;50.866;12.750;2024-01-27T00:29:50;2.90;92.00
4376;DHT22;2202;50.866;12.750;2024-01-27T00:32:17;3.00;91.80
4376;DHT22;2202;50.866;12.750;2024-01-27T00:34:44;3.00;92.00
4376;DHT22;2202;50.866;12.750;2024-01-27T00:37:11;3.00;92.20
4376;DHT22;2202;50.866;12.750;2024-01-27T00:39:37;2.90;91.40
4376;DHT22;2202;50.866;12.750;2024-01-27T00:42:04;2.90;91.50
4376;DHT22;2202;50.866;12.750;2024-01-27T00:44:31;2.90;91.40
4376;DHT22;2202;50.866;12.750;2024-01-27T00:47:00;2.90;90.80
4376;DHT22;2202;50.866;12.750;2024-01-27T00:49:26;3.00;90.70
4376;DHT22;2202;50.866;12.750;2024-01-27T00:51:53;3.00;90.60
4376;DHT22;2202;50.866;12.750;2024-01-27T00:54:20;2.90;90.30
4376;DHT22;2202;50.866;12.750;2024-01-27T00:56:47;2.90;90.30
4376;DHT22;2202;50.866;12.750;2024-01-27T00:59:14;2.90;90.20
4376;DHT22;2202;50.866;12.750;2024-01-27T01:01:41;2.90;89.40
4376;DHT22;2202;50.866;12.750;2024-01-27T01:04:09;2.90;89.20
4376;DHT22;2202;50.866;12.750;2024-01-27T01:06:38;2.90;88.60
4376;DHT22;2202;50.866;12.750;2024-01-27T01:09:05;2.90;88.00
4376;DHT22;2202;50.866;12.750;2024-01-27T01:11:32;2.80;88.00
4376;DHT22;2202;50.866;12.750;2024-01-27T01:13:59;2.80;88.20
4376;DHT22;2202;50.866;12.750;2024-01-27T01:16:26;2.80;87.80
4376;DHT22;2202;50.866;12.750;2024-01-27T01:18:53;2.80;88.40
4376;DHT22;2202;50.866;12.750;2024-01-27T01:21:22;2.80;87.00
4376;DHT22;2202;50.866;12.750;2024-01-27T01:23:48;2.80;87.20
4376;DHT22;2202;50.866;12.750;2024-01-27T01:26:15;2.80;86.00
4376;DHT22;2202;50.866;12.750;2024-01-27T01:28:42;2.80;86.00
4376;DHT22;2202;50.866;12.750;2024-01-27T01:31:09;2.80;85.60
4376;DHT22;2202;50.866;12.750;2024-01-27T01:33:37;2.80;85.60
4376;DHT22;2202;50.866;12.750;2024-01-27T01:36:04;2.80;86.20
4376;DHT22;2202;50.866;12.750;2024-01-27T01:38:32;2.70;85.60
4376;DHT22;2202;50.866;12.750;2024-01-27T01:40:59;2.70;85.60
4376;DHT22;2202;50.866;12.750;2024-01-27T01:43:26;2.70;85.20
4376;DHT22;2202;50.866;12.750;2024-01-27T01:45:53;2.70;85.00
4376;DHT22;2202;50.866;12.750;2024-01-27T01:48:20;2.70;84.40
4376;DHT22;2202;50.866;12.750;2024-01-27T01:50:47;2.70;84.40
4376;DHT22;2202;50.866;12.750;2024-01-27T01:53:15;2.70;84.00
4376;DHT22;2202;50.866;12.750;2024-01-27T01:55:43;2.70;84.20
4376;DHT22;2202;50.866;12.750;2024-01-27T01:58:12;2.60;83.80
4376;DHT22;2202;50.866;12.750;2024-01-27T02:00:39;2.70;83.20
4376;DHT22;2202;50.866;12.750;2024-01-27T02:03:10;2.60;82.60
4376;DHT22;2202;50.866;12.750;2024-01-27T02:05:37;2.60;83.80
4376;DHT22;2202;50.866;12.750;2024-01-27T02:08:04;2.60;83.80
4376;DHT22;2202;50.866;12.750;2024-01-27T02:10:31;2.50;83.60
4376;DHT22;2202;50.866;12.750;2024-01-27T02:13:03;2.50;83.80
4376;DHT22;2202;50.866;12.750;2024-01-27T02:15:31;2.50;84.80
4376;DHT22;2202;50.866;12.750;2024-01-27T02:17:58;2.50;85.00
4376;DHT22;2202;50.866;12.750;2024-01-27T02:20:24;2.50;84.60
4376;DHT22;2202;50.866;12.750;2024-01-27T02:22:51;2.50;85.00
4376;DHT22;2202;50.866;12.750;2024-01-27T02:25:19;2.50;84.80
4376;DHT22;2202;50.866;12.750;2024-01-27T02:27:46;2.40;85.20
4376;DHT22;2202;50.866;12.750;2024-01-27T02:30:13;2.30;85.40
4376;DHT22;2202;50.866;12.750;2024-01-27T02:32:40;2.30;85.40
4376;DHT22;2202;50.866;12.750;2024-01-27T02:35:08;2.30;85.80
4376;DHT22;2202;50.866;12.750;2024-01-27T02:37:35;2.20;86.20
4376;DHT22;2202;50.866;12.750;2024-01-27T02:40:02;2.20;86.60
4376;DHT22;2202;50.866;12.750;2024-01-27T02:42:30;2.10;86.80
4376;DHT22;2202;50.866;12.750;2024-01-27T02:44:57;2.10;87.20
4376;DHT22;2202;50.866;12.750;2024-01-27T02:47:24;2.10;87.60
4376;DHT22;2202;50.866;12.750;2024-01-27T02:49:51;2.10;87.20
4376;DHT22;2202;50.866;12.750;2024-01-27T02:52:18;2.00;87.40
4376;DHT22;2202;50.866;12.750;2024-01-27T02:54:45;2.00;88.20
4376;DHT22;2202;50.866;12.750;2024-01-27T02:57:12;2.00;88.60
4376;DHT22;2202;50.866;12.750;2024-01-27T02:59:40;1.90;88.80
4376;DHT22;2202;50.866;12.750;2024-01-27T03:02:07;1.90;89.00
4376;DHT22;2202;50.866;12.750;2024-01-27T03:04:34;1.90;89.00
4376;DHT22;2202;50.866;12.750;2024-01-27T03:07:01;1.90;89.20
4376;DHT22;2202;50.866;12.750;2024-01-27T03:09:28;1.90;89.60
4376;DHT22;2202;50.866;12.750;2024-01-27T03:11:55;1.80;90.10
4376;DHT22;2202;50.866;12.750;2024-01-27T03:14:22;1.80;90.30
4376;DHT22;2202;50.866;12.750;2024-01-27T03:16:51;1.80;90.50
4376;DHT22;2202;50.866;12.750;2024-01-27T03:19:18;1.80;90.30
4376;DHT22;2202;50.866;12.750;2024-01-27T03:21:45;1.80;90.20
4376;DHT22;2202;50.866;12.750;2024-01-27T03:24:12;1.80;90.10
4376;DHT22;2202;50.866;12.750;2024-01-27T03:26:39;1.80;90.10
4376;DHT22;2202;50.866;12.750;2024-01-27T03:29:06;1.80;90.10
4376;DHT22;2202;50.866;12.750;2024-01-27T03:31:33;1.80;90.10
4376;DHT22;2202;50.866;12.750;2024-01-27T03:34:02;1.70;90.20
4376;DHT22;2202;50.866;12.750;2024-01-27T03:36:30;1.70;90.20
4376;DHT22;2202;50.866;12.750;2024-01-27T03:38:58;1.70;90.30
4376;DHT22;2202;50.866;12.750;2024-01-27T03:41:25;1.70;90.20
4376;DHT22;2202;50.866;12.750;2024-01-27T03:43:52;1.70;90.10
4376;DHT22;2202;50.866;12.750;2024-01-27T03:46:19;1.70;90.10
4376;DHT22;2202;50.866;12.750;2024-01-27T03:48:46;1.70;90.20
4376;DHT22;2202;50.866;12.750;2024-01-27T03:51:14;1.70;90.20
4376;DHT22;2202;50.866;12.750;2024-01-27T03:53:41;1.70;90.20
4376;DHT22;2202;50.866;12.750;2024-01-27T03:56:11;1.60;90.30
4376;DHT22;2202;50.866;12.750;2024-01-27T03:58:38;1.50;90.40
4376;DHT22;2202;50.866;12.750;2024-01-27T04:01:05;1.60;90.30
4376;DHT22;2202;50.866;12.750;2024-01-27T04:03:32;1.60;90.20
4376;DHT22;2202;50.866;12.750;2024-01-27T04:05:59;1.60;90.30
4376;DHT22;2202;50.866;12.750;2024-01-27T04:08:29;1.60;90.20
4376;DHT22;2202;50.866;12.750;2024-01-27T04:10:56;1.50;90.30
4376;DHT22;2202;50.866;12.750;2024-01-27T04:13:23;1.50;90.30
4376;DHT22;2202;50.866;12.750;2024-01-27T04:15:50;1.50;90.30
4376;DHT22;2202;50.866;12.750;2024-01-27T04:18:19;1.60;90.00
4376;DHT22;2202;50.866;12.750;2024-01-27T04:20:46;1.50;89.80
4376;DHT22;2202;50.866;12.750;2024-01-27T04:23:15;1.50;90.10
4376;DHT22;2202;50.866;12.750;2024-01-27T04:25:44;1.60;89.80
4376;DHT22;2202;50.866;12.750;2024-01-27T04:28:11;1.60;89.80
4376;DHT22;2202;50.866;12.750;2024-01-27T04:30:38;1.60;89.80
4376;DHT22;2202;50.866;12.750;2024-01-27T04:33:05;1.50;89.60
4376;DHT22;2202;50.866;12.750;2024-01-27T04:35:33;1.50;89.80
4376;DHT22;2202;50.866;12.750;2024-01-27T04:38:00;1.50;89.80
4376;DHT22;2202;50.866;12.750;2024-01-27T04:40:27;1.50;90.00
4376;DHT22;2202;50.866;12.750;2024-01-27T04:42:55;1.50;90.00
4376;DHT22;2202;50.866;12.750;2024-01-27T04:45:22;1.50;90.10
4376;DHT22;2202;50.866;12.750;2024-01-27T04:47:49;1.50;90.10
4376;DHT22;2202;50.866;12.750;2024-01-27T04:50:16;1.50;90.10
4376;DHT22;2202;50.866;12.750;2024-01-27T04:52:43;1.50;90.00
4376;DHT22;2202;50.866;12.750;2024-01-27T04:55:10;1.50;90.00
4376;DHT22;2202;50.866;12.750;2024-01-27T04:57:37;1.50;90.10
4376;DHT22;2202;50.866;12.750;2024-01-27T05:00:06;1.50;89.80
4376;DHT22;2202;50.866;12.750;2024-01-27T05:02:39;1.50;89.60
4376;DHT22;2202;50.866;12.750;2024-01-27T05:05:06;1.60;89.40
4376;DHT22;2202;50.866;12.750;2024-01-27T05:07:33;1.60;89.80
4376;DHT22;2202;50.866;12.750;2024-01-27T05:10:00;1.60;89.40
4376;DHT22;2202;50.866;12.750;2024-01-27T05:12:27;1.50;89.80
4376;DHT22;2202;50.866;12.750;2024-01-27T05:14:55;1.50;89.80
4376;DHT22;2202;50.866;12.750;2024-01-27T05:17:23;1.50;89.60
4376;DHT22;2202;50.866;12.750;2024-01-27T05:19:50;1.50;90.00
4376;DHT22;2202;50.866;12.750;2024-01-27T05:22:17;1.40;90.10
4376;DHT22;2202;50.866;12.750;2024-01-27T05:24:43;1.40;90.30
4376;DHT22;2202;50.866;12.750;2024-01-27T05:27:10;1.30;90.30
4376;DHT22;2202;50.866;12.750;2024-01-27T05:29:38;1.20;90.40
4376;DHT22;2202;50.866;12.750;2024-01-27T05:32:05;1.20;90.60
4376;DHT22;2202;50.866;12.750;2024-01-27T05:34:33;1.20;90.50
4376;DHT22;2202;50.866;12.750;2024-01-27T05:37:00;1.20;90.50
4376;DHT22;2202;50.866;12.750;2024-01-27T05:39:28;1.20;90.50
4376;DHT22;2202;50.866;12.750;2024-01-27T05:41:55;1.30;90.30
4376;DHT22;2202;50.866;12.750;2024-01-27T05:44:22;1.30;90.50
4376;DHT22;2202;50.866;12.750;2024-01-27T05:46:49;1.20;90.40
4376;DHT22;2202;50.866;12.750;2024-01-27T05:49:16;1.20;90.50
4376;DHT22;2202;50.866;12.750;2024-01-27T05:51:45;1.20;90.40
4376;DHT22;2202;50.866;12.750;2024-01-27T05:54:12;1.20;90.50
4376;DHT22;2202;50.866;12.750;2024-01-27T05:56:42;1.20;90.40
4376;DHT22;2202;50.866;12.750;2024-01-27T05:59:09;1.20;90.60
4376;DHT22;2202;50.866;12.750;2024-01-27T06:01:36;1.20;90.60
4376;DHT22;2202;50.866;12.750;2024-01-27T06:04:06;1.20;90.70
4376;DHT22;2202;50.866;12.750;2024-01-27T06:06:33;1.20;90.70
4376;DHT22;2202;50.866;12.750;2024-01-27T06:09:01;1.20;90.60
4376;DHT22;2202;50.866;12.750;2024-01-27T06:11:29;1.20;90.60
4376;DHT22;2202;50.866;12.750;2024-01-27T06:13:56;1.20;90.60
4376;DHT22;2202;50.866;12.750;2024-01-27T06:16:24;1.20;90.60
4376;DHT22;2202;50.866;12.750;2024-01-27T06:18:51;1.20;90.60
4376;DHT22;2202;50.866;12.750;2024-01-27T06:21:20;1.10;90.90
4376;DHT22;2202;50.866;12.750;2024-01-27T06:23:47;1.10;90.90
4376;DHT22;2202;50.866;12.750;2024-01-27T06:26:15;1.10;90.90
4376;DHT22;2202;50.866;12.750;2024-01-27T06:28:42;1.00;91.10
4376;DHT22;2202;50.866;12.750;2024-01-27T06:31:09;1.00;91.30
4376;DHT22;2202;50.866;12.750;2024-01-27T06:33:36;1.00;91.40
4376;DHT22;2202;50.866;12.750;2024-01-27T06:36:03;1.00;91.60
4376;DHT22;2202;50.866;12.750;2024-01-27T06:38:30;1.00;91.50
4376;DHT22;2202;50.866;12.750;2024-01-27T06:40:57;0.90;91.80
4376;DHT22;2202;50.866;12.750;2024-01-27T06:43:25;0.90;91.80
4376;DHT22;2202;50.866;12.750;2024-01-27T06:45:52;1.00;91.90
4376;DHT22;2202;50.866;12.750;2024-01-27T06:48:21;1.00;91.60
4376;DHT22;2202;50.866;12.750;2024-01-27T06:50:50;1.00;91.60
4376;DHT22;2202;50.866;12.750;2024-01-27T06:53:18;1.10;91.70
4376;DHT22;2202;50.866;12.750;2024-01-27T06:55:45;1.10;91.60
4376;DHT22;2202;50.866;12.750;2024-01-27T06:58:12;1.10;91.40
4376;DHT22;2202;50.866;12.750;2024-01-27T07:00:41;1.10;91.40
4376;DHT22;2202;50.866;12.750;2024-01-27T07:03:08;1.10;91.50
4376;DHT22;2202;50.866;12.750;2024-01-27T07:05:35;1.10;91.60
4376;DHT22;2202;50.866;12.750;2024-01-27T07:08:05;1.10;91.50
4376;DHT22;2202;50.866;12.750;2024-01-27T07:10:32;1.10;91.70
4376;DHT22;2202;50.866;12.750;2024-01-27T07:12:59;1.10;91.70
4376;DHT22;2202;50.866;12.750;2024-01-27T07:15:26;1.10;91.70
4376;DHT22;2202;50.866;12.750;2024-01-27T07:17:55;1.10;91.60
4376;DHT22;2202;50.866;12.750;2024-01-27T07:20:22;1.10;91.80
4376;DHT22;2202;50.866;12.750;2024-01-27T07:22:50;1.10;91.60
4376;DHT22;2202;50.866;12.750;2024-01-27T07:25:17;1.10;91.70
4376;DHT22;2202;50.866;12.750;2024-01-27T07:27:44;1.10;91.60
4376;DHT22;2202;50.866;12.750;2024-01-27T07:30:12;1.10;91.80
4376;DHT22;2202;50.866;12.750;2024-01-27T07:32:39;1.10;91.80
4376;DHT22;2202;50.866;12.750;2024-01-27T07:35:08;1.00;91.90
4376;DHT22;2202;50.866;12.750;2024-01-27T07:37:35;1.00;92.10
4376;DHT22;2202;50.866;12.750;2024-01-27T07:40:02;1.00;92.20
4376;DHT22;2202;50.866;12.750;2024-01-27T07:42:29;1.10;92.20
4376;DHT22;2202;50.866;12.750;2024-01-27T07:44:56;1.10;92.20
4376;DHT22;2202;50.866;12.750;2024-01-27T07:47:23;1.20;92.10
4376;DHT22;2202;50.866;12.750;2024-01-27T07:49:50;1.30;91.90
4376;DHT22;2202;50.866;12.750;2024-01-27T07:52:19;1.40;91.60
4376;DHT22;2202;50.866;12.750;2024-01-27T07:54:46;1.50;91.30
4376;DHT22;2202;50.866;12.750;2024-01-27T07:57:13;1.50;91.30
4376;DHT22;2202;50.866;12.750;2024-01-27T07:59:40;1.90;91.50
4376;DHT22;2202;50.866;12.750;2024-01-27T08:02:07;2.60;89.40
4376;DHT22;2202;50.866;12.750;2024-01-27T08:04:34;2.90;85.80
4376;DHT22;2202;50.866;12.750;2024-01-27T08:07:01;3.10;83.40
4376;DHT22;2202;50.866;12.750;2024-01-27T08:09:33;3.40;82.80
4376;DHT22;2202;50.866;12.750;2024-01-27T08:12:00;3.40;80.80
4376;DHT22;2202;50.866;12.750;2024-01-27T08:14:27;3.40;81.00
4376;DHT22;2202;50.866;12.750;2024-01-27T08:16:55;3.70;80.80
4376;DHT22;2202;50.866;12.750;2024-01-27T08:19:23;4.00;79.20
4376;DHT22;2202;50.866;12.750;2024-01-27T08:21:50;4.10;77.20
4376;DHT22;2202;50.866;12.750;2024-01-27T08:24:17;3.90;79.00
4376;DHT22;2202;50.866;12.750;2024-01-27T08:26:45;3.90;80.00
4376;DHT22;2202;50.866;12.750;2024-01-27T08:29:14;4.20;78.40
4376;DHT22;2202;50.866;12.750;2024-01-27T08:31:41;4.30;77.60
4376;DHT22;2202;50.866;12.750;2024-01-27T08:34:07;4.40;76.80
4376;DHT22;2202;50.866;12.750;2024-01-27T08:36:35;4.40;76.80
4376;DHT22;2202;50.866;12.750;2024-01-27T08:39:02;4.00;77.40
4376;DHT22;2202;50.866;12.750;2024-01-27T08:41:30;3.50;80.00
4376;DHT22;2202;50.866;12.750;2024-01-27T08:43:58;3.30;82.40
4376;DHT22;2202;50.866;12.750;2024-01-27T08:46:25;3.10;83.80
4376;DHT22;2202;50.866;12.750;2024-01-27T08:48:52;3.40;84.00
4376;DHT22;2202;50.866;12.750;2024-01-27T08:51:18;3.70;81.20
4376;DHT22;2202;50.866;12.750;2024-01-27T08:53:45;3.70;80.40
4376;DHT22;2202;50.866;12.750;2024-01-27T08:56:14;3.70;80.80
4376;DHT22;2202;50.866;12.750;2024-01-27T08:58:41;3.70;81.40
4376;DHT22;2202;50.866;12.750;2024-01-27T09:01:10;3.60;81.60
4376;DHT22;2202;50.866;12.750;2024-01-27T09:03:40;3.80;81.00
4376;DHT22;2202;50.866;12.750;2024-01-27T09:06:07;3.60;81.20
4376;DHT22;2202;50.866;12.750;2024-01-27T09:08:34;3.30;82.40
4376;DHT22;2202;50.866;12.750;2024-01-27T09:11:01;3.00;84.00
4376;DHT22;2202;50.866;12.750;2024-01-27T09:13:28;2.90;86.00
4376;DHT22;2202;50.866;12.750;2024-01-27T09:15:56;2.90;86.40
4376;DHT22;2202;50.866;12.750;2024-01-27T09:18:24;2.80;86.80
4376;DHT22;2202;50.866;12.750;2024-01-27T09:20:51;2.90;87.00
4376;DHT22;2202;50.866;12.750;2024-01-27T09:23:18;2.90;87.40
4376;DHT22;2202;50.866;12.750;2024-01-27T09:25:45;3.00;87.60
4376;DHT22;2202;50.866;12.750;2024-01-27T09:28:12;2.90;86.80
4376;DHT22;2202;50.866;12.750;2024-01-27T09:30:39;2.90;87.20
4376;DHT22;2202;50.866;12.750;2024-01-27T09:33:07;3.00;87.20
4376;DHT22;2202;50.866;12.750;2024-01-27T09:35:35;3.10;86.40
4376;DHT22;2202;50.866;12.750;2024-01-27T09:38:02;3.20;87.00
4376;DHT22;2202;50.866;12.750;2024-01-27T09:40:29;3.30;86.20
4376;DHT22;2202;50.866;12.750;2024-01-27T09:42:59;3.10;86.20
4376;DHT22;2202;50.866;12.750;2024-01-27T09:45:26;3.30;86.80
4376;DHT22;2202;50.866;12.750;2024-01-27T09:47:56;3.30;86.80
4376;DHT22;2202;50.866;12.750;2024-01-27T09:50:24;3.40;86.20
4376;DHT22;2202;50.866;12.750;2024-01-27T09:52:53;3.40;86.20
4376;DHT22;2202;50.866;12.750;2024-01-27T09:55:20;3.50;86.80
4376;DHT22;2202;50.866;12.750;2024-01-27T09:57:47;3.50;85.80
4376;DHT22;2202;50.866;12.750;2024-01-27T10:00:15;3.60;86.00
4376;DHT22;2202;50.866;12.750;2024-01-27T10:02:45;3.60;84.80
4376;DHT22;2202;50.866;12.750;2024-01-27T10:05:13;3.70;85.20
4376;DHT22;2202;50.866;12.750;2024-01-27T10:07:40;3.70;84.80
4376;DHT22;2202;50.866;12.750;2024-01-27T10:10:09;3.70;84.40
4376;DHT22;2202;50.866;12.750;2024-01-27T10:12:40;3.70;85.20
4376;DHT22;2202;50.866;12.750;2024-01-27T10:15:18;3.70;85.20
4376;DHT22;2202;50.866;12.750;2024-01-27T10:17:46;3.70;84.80
4376;DHT22;2202;50.866;12.750;2024-01-27T10:20:13;3.80;85.00
4376;DHT22;2202;50.866;12.750;2024-01-27T10:22:41;3.90;84.80
4376;DHT22;2202;50.866;12.750;2024-01-27T10:25:10;4.10;84.00
4376;DHT22;2202;50.866;12.750;2024-01-27T10:27:37;4.20;84.20
4376;DHT22;2202;50.866;12.750;2024-01-27T10:30:05;4.20;82.60
4376;DHT22;2202;50.866;12.750;2024-01-27T10:32:33;4.10;83.00
4376;DHT22;2202;50.866;12.750;2024-01-27T10:35:03;4.10;83.00
4376;DHT22;2202;50.866;12.750;2024-01-27T10:37:30;4.10;83.80
4376;DHT22;2202;50.866;12.750;2024-01-27T10:40:02;4.20;83.60
4376;DHT22;2202;50.866;12.750;2024-01-27T10:42:31;4.30;83.40
4376;DHT22;2202;50.866;12.750;2024-01-27T10:44:58;4.30;83.00
4376;DHT22;2202;50.866;12.750;2024-01-27T10:47:27;4.30;83.60
4376;DHT22;2202;50.866;12.750;2024-01-27T10:49:55;4.50;83.20
4376;DHT22;2202;50.866;12.750;2024-01-27T10:52:24;4.30;82.20
4376;DHT22;2202;50.866;12.750;2024-01-27T10:54:57;4.40;82.80
4376;DHT22;2202;50.866;12.750;2024-01-27T10:57:26;4.50;82.80
4376;DHT22;2202;50.866;12.750;2024-01-27T10:59:55;4.60;82.20
4376;DHT22;2202;50.866;12.750;2024-01-27T11:02:23;4.80;83.00
4376;DHT22;2202;50.866;12.750;2024-01-27T11:04:51;4.80;80.80
4376;DHT22;2202;50.866;12.750;2024-01-27T11:07:20;4.80;81.80
4376;DHT22;2202;50.866;12.750;2024-01-27T11:09:49;4.80;80.60
4376;DHT22;2202;50.866;12.750;2024-01-27T11:12:18;4.90;81.00
4376;DHT22;2202;50.866;12.750;2024-01-27T11:14:46;5.00;79.20
4376;DHT22;2202;50.866;12.750;2024-01-27T11:17:15;4.90;79.80
4376;DHT22;2202;50.866;12.750;2024-01-27T11:19:42;4.90;79.40
4376;DHT22;2202;50.866;12.750;2024-01-27T11:22:23;4.90;79.40
4376;DHT22;2202;50.866;12.750;2024-01-27T11:24:51;4.90;80.60
4376;DHT22;2202;50.866;12.750;2024-01-27T11:27:18;5.10;79.60
4376;DHT22;2202;50.866;12.750;2024-01-27T11:30:00;5.20;79.20
4376;DHT22;2202;50.866;12.750;2024-01-27T11:32:28;5.20;77.40
4376;DHT22;2202;50.866;12.750;2024-01-27T11:34:55;5.20;77.20
4376;DHT22;2202;50.866;12.750;2024-01-27T11:37:22;5.10;77.80
4376;DHT22;2202;50.866;12.750;2024-01-27T11:39:50;5.20;78.00
4376;DHT22;2202;50.866;12.750;2024-01-27T11:42:18;5.30;77.80
4376;DHT22;2202;50.866;12.750;2024-01-27T11:44:45;5.50;78.00
4376;DHT22;2202;50.866;12.750;2024-01-27T11:47:17;5.60;75.80
4376;DHT22;2202;50.866;12.750;2024-01-27T11:49:51;5.40;76.80
4376;DHT22;2202;50.866;12.750;2024-01-27T11:52:20;5.50;77.40
4376;DHT22;2202;50.866;12.750;2024-01-27T11:54:54;5.60;74.80
4376;DHT22;2202;50.866;12.750;2024-01-27T11:57:20;5.50;74.80
4376;DHT22;2202;50.866;12.750;2024-01-27T11:59:47;5.60;74.40
4376;DHT22;2202;50.866;12.750;2024-01-27T12:02:14;5.50;72.80
4376;DHT22;2202;50.866;12.750;2024-01-27T12:04:41;5.40;72.80
4376;DHT22;2202;50.866;12.750;2024-01-27T12:07:10;5.40;74.40
4376;DHT22;2202;50.866;12.750;2024-01-27T12:09:37;5.50;73.80
4376;DHT22;2202;50.866;12.750;2024-01-27T12:12:05;5.60;74.80
4376;DHT22;2202;50.866;12.750;2024-01-27T12:14:38;5.50;72.60
4376;DHT22;2202;50.866;12.750;2024-01-27T12:17:08;5.50;72.20
4376;DHT22;2202;50.866;12.750;2024-01-27T12:19:35;5.60;72.20
4376;DHT22;2202;50.866;12.750;2024-01-27T12:22:02;5.60;70.60
4376;DHT22;2202;50.866;12.750;2024-01-27T12:24:31;5.70;71.60
4376;DHT22;2202;50.866;12.750;2024-01-27T12:26:59;5.70;71.00
4376;DHT22;2202;50.866;12.750;2024-01-27T12:29:26;5.70;71.60
4376;DHT22;2202;50.866;12.750;2024-01-27T12:31:54;5.70;70.60
4376;DHT22;2202;50.866;12.750;2024-01-27T12:34:21;5.70;72.40
4376;DHT22;2202;50.866;12.750;2024-01-27T12:36:48;5.90;72.00
4376;DHT22;2202;50.866;12.750;2024-01-27T12:39:17;5.90;70.20
4376;DHT22;2202;50.866;12.750;2024-01-27T12:41:45;5.90;69.20
4376;DHT22;2202;50.866;12.750;2024-01-27T12:44:12;5.90;69.00
4376;DHT22;2202;50.866;12.750;2024-01-27T12:46:39;6.00;69.80
4376;DHT22;2202;50.866;12.750;2024-01-27T12:49:06;6.00;70.20
4376;DHT22;2202;50.866;12.750;2024-01-27T12:51:34;6.00;69.40
4376;DHT22;2202;50.866;12.750;2024-01-27T12:54:01;6.10;70.60
4376;DHT22;2202;50.866;12.750;2024-01-27T12:56:31;6.10;67.40
4376;DHT22;2202;50.866;12.750;2024-01-27T12:59:01;6.10;69.20
4376;DHT22;2202;50.866;12.750;2024-01-27T13:01:28;6.20;70.40
4376;DHT22;2202;50.866;12.750;2024-01-27T13:03:55;6.20;69.20
4376;DHT22;2202;50.866;12.750;2024-01-27T13:06:22;6.10;69.00
4376;DHT22;2202;50.866;12.750;2024-01-27T13:08:49;6.20;69.20
4376;DHT22;2202;50.866;12.750;2024-01-27T13:11:16;6.10;67.20
4376;DHT22;2202;50.866;12.750;2024-01-27T13:13:43;6.10;67.20
4376;DHT22;2202;50.866;12.750;2024-01-27T13:16:11;6.10;68.40
4376;DHT22;2202;50.866;12.750;2024-01-27T13:18:38;6.10;68.00
4376;DHT22;2202;50.866;12.750;2024-01-27T13:21:05;6.00;67.00
4376;DHT22;2202;50.866;12.750;2024-01-27T13:23:32;6.00;67.80
4376;DHT22;2202;50.866;12.750;2024-01-27T13:25:59;6.00;67.80
4376;DHT22;2202;50.866;12.750;2024-01-27T13:28:26;6.20;67.60
4376;DHT22;2202;50.866;12.750;2024-01-27T13:30:53;6.10;67.40
4376;DHT22;2202;50.866;12.750;2024-01-27T13:33:22;6.20;67.80
4376;DHT22;2202;50.866;12.750;2024-01-27T13:35:49;6.30;68.20
4376;DHT22;2202;50.866;12.750;2024-01-27T13:38:17;6.40;68.40
4376;DHT22;2202;50.866;12.750;2024-01-27T13:40:48;6.50;68.20
4376;DHT22;2202;50.866;12.750;2024-01-27T13:43:15;6.30;65.00
4376;DHT22;2202;50.866;12.750;2024-01-27T13:45:42;6.10;66.40
4376;DHT22;2202;50.866;12.750;2024-01-27T13:48:10;6.20;67.20
4376;DHT22;2202;50.866;12.750;2024-01-27T13:50:38;6.20;66.60
4376;DHT22;2202;50.866;12.750;2024-01-27T13:53:06;6.10;67.20
4376;DHT22;2202;50.866;12.750;2024-01-27T13:55:33;6.10;66.00
4376;DHT22;2202;50.866;12.750;2024-01-27T13:58:00;6.10;65.40
4376;DHT22;2202;50.866;12.750;2024-01-27T14:00:27;6.10;65.80
4376;DHT22;2202;50.866;12.750;2024-01-27T14:02:54;6.10;66.80
4376;DHT22;2202;50.866;12.750;2024-01-27T14:05:21;6.10;65.40
4376;DHT22;2202;50.866;12.750;2024-01-27T14:07:50;5.90;64.40
4376;DHT22;2202;50.866;12.750;2024-01-27T14:10:17;5.90;65.60
4376;DHT22;2202;50.866;12.750;2024-01-27T14:12:44;6.00;65.80
4376;DHT22;2202;50.866;12.750;2024-01-27T14:15:11;6.10;66.20
4376;DHT22;2202;50.866;12.750;2024-01-27T14:17:38;6.00;67.00
4376;DHT22;2202;50.866;12.750;2024-01-27T14:20:06;6.10;66.80
4376;DHT22;2202;50.866;12.750;2024-01-27T14:22:34;6.00;66.40
4376;DHT22;2202;50.866;12.750;2024-01-27T14:25:03;6.00;67.60
4376;DHT22;2202;50.866;12.750;2024-01-27T14:27:31;5.90;67.20
4376;DHT22;2202;50.866;12.750;2024-01-27T14:29:58;5.90;67.20
4376;DHT22;2202;50.866;12.750;2024-01-27T14:32:24;5.90;68.20
4376;DHT22;2202;50.866;12.750;2024-01-27T14:34:51;5.90;69.00
4376;DHT22;2202;50.866;12.750;2024-01-27T14:37:19;6.00;69.20
4376;DHT22;2202;50.866;12.750;2024-01-27T14:39:46;5.90;68.20
4376;DHT22;2202;50.866;12.750;2024-01-27T14:42:15;5.90;68.40
4376;DHT22;2202;50.866;12.750;2024-01-27T14:44:44;5.80;67.80
4376;DHT22;2202;50.866;12.750;2024-01-27T14:47:11;5.80;68.60
4376;DHT22;2202;50.866;12.750;2024-01-27T14:49:38;5.80;69.00
4376;DHT22;2202;50.866;12.750;2024-01-27T14:52:06;5.70;69.00
4376;DHT22;2202;50.866;12.750;2024-01-27T14:54:33;5.60;69.60
4376;DHT22;2202;50.866;12.750;2024-01-27T14:57:02;5.60;69.60
4376;DHT22;2202;50.866;12.750;2024-01-27T14:59:31;5.60;70.40
4376;DHT22;2202;50.866;12.750;2024-01-27T15:01:58;5.50;71.40
4376;DHT22;2202;50.866;12.750;2024-01-27T15:04:25;5.50;72.20
4376;DHT22;2202;50.866;12.750;2024-01-27T15:06:52;5.40;72.00
4376;DHT22;2202;50.866;12.750;2024-01-27T15:09:20;5.40;72.40
4376;DHT22;2202;50.866;12.750;2024-01-27T15:11:48;5.30;71.60
4376;DHT22;2202;50.866;12.750;2024-01-27T15:14:15;5.30;72.00
4376;DHT22;2202;50.866;12.750;2024-01-27T15:16:44;5.20;72.40
4376;DHT22;2202;50.866;12.750;2024-01-27T15:19:11;5.20;72.80
4376;DHT22;2202;50.866;12.750;2024-01-27T15:21:37;5.20;72.20
4376;DHT22;2202;50.866;12.750;2024-01-27T15:24:05;5.20;72.20
4376;DHT22;2202;50.866;12.750;2024-01-27T15:26:32;5.20;73.00
4376;DHT22;2202;50.866;12.750;2024-01-27T15:28:59;5.10;72.80
4376;DHT22;2202;50.866;12.750;2024-01-27T15:31:26;5.10;73.40
4376;DHT22;2202;50.866;12.750;2024-01-27T15:33:55;5.00;73.60
4376;DHT22;2202;50.866;12.750;2024-01-27T15:36:22;5.00;74.20
4376;DHT22;2202;50.866;12.750;2024-01-27T15:38:49;4.90;74.40
4376;DHT22;2202;50.866;12.750;2024-01-27T15:41:15;4.90;74.80
4376;DHT22;2202;50.866;12.750;2024-01-27T15:43:44;4.90;75.20
4376;DHT22;2202;50.866;12.750;2024-01-27T15:46:13;4.80;75.60
4376;DHT22;2202;50.866;12.750;2024-01-27T15:48:40;4.80;75.60
4376;DHT22;2202;50.866;12.750;2024-01-27T15:51:08;4.80;75.80
4376;DHT22;2202;50.866;12.750;2024-01-27T15:53:35;4.70;75.80
4376;DHT22;2202;50.866;12.750;2024-01-27T15:56:02;4.60;76.20
4376;DHT22;2202;50.866;12.750;2024-01-27T15:58:29;4.50;76.60
4376;DHT22;2202;50.866;12.750;2024-01-27T16:00:56;4.40;76.80
4376;DHT22;2202;50.866;12.750;2024-01-27T16:03:23;4.30;77.20